createdAt,value
2017-09-02T00:01:54.611Z,80.40
2017-09-02T00:04:24.438Z,81.40
2017-09-02T00:06:54.173Z,80.00
2017-09-02T00:09:24.137Z,80.10
2017-09-02T00:11:53.841Z,78.40
2017-09-02T00:14:23.778Z,78.10
2017-09-02T00:16:53.180Z,78.80
2017-09-02T00:19:22.589Z,78.00
2017-09-02T00:21:51.980Z,79.40
2017-09-02T00:24:21.293Z,79.00
2017-09-02T00:26:51.193Z,77.90
2017-09-02T00:29:20.445Z,78.30
2017-09-02T00:31:50.079Z,78.10
2017-09-02T00:34:19.378Z,78.80
2017-09-02T00:36:49.177Z,78.70
2017-09-02T00:39:19.194Z,79.50
2017-09-02T00:41:50.213Z,79.60
2017-09-02T00:44:19.611Z,79.70
2017-09-02T00:46:49.751Z,79.90
2017-09-02T00:49:19.082Z,79.90
2017-09-02T00:51:49.397Z,80.40
2017-09-02T00:54:18.790Z,80.40
2017-09-02T00:56:48.115Z,78.80
2017-09-02T00:59:17.400Z,79.40
2017-09-02T01:01:47.040Z,80.10
2017-09-02T01:04:16.455Z,80.50
2017-09-02T01:06:46.021Z,80.50
2017-09-02T01:09:16.115Z,79.10
2017-09-02T01:11:45.915Z,79.10
2017-09-02T01:14:15.434Z,79.00
2017-09-02T01:16:48.663Z,79.60
2017-09-02T01:19:18.942Z,80.20
2017-09-02T01:28:31.439Z,80.00
2017-09-02T01:31:01.439Z,79.50
2017-09-02T01:33:30.879Z,79.50
2017-09-02T01:36:02.207Z,80.20
2017-09-02T01:38:32.995Z,81.30
2017-09-02T01:41:03.096Z,81.60
2017-09-02T01:43:33.315Z,81.70
2017-09-02T01:46:03.205Z,81.90
2017-09-02T01:48:32.730Z,81.60
2017-09-02T01:51:02.035Z,81.50
2017-09-02T01:53:32.145Z,82.10
2017-09-02T01:56:01.407Z,82.10
2017-09-02T01:58:31.052Z,82.60
2017-09-02T02:01:00.447Z,82.60
2017-09-02T02:03:29.754Z,82.60
2017-09-02T02:05:59.049Z,82.10
2017-09-02T02:08:28.380Z,82.10
2017-09-02T02:11:00.522Z,82.10
2017-09-02T02:13:31.549Z,82.50
2017-09-02T02:16:03.365Z,83.10
2017-09-02T02:18:34.583Z,82.70
2017-09-02T02:21:05.234Z,83.20
2017-09-02T02:23:38.501Z,83.60
2017-09-02T02:26:10.516Z,83.80
2017-09-02T02:28:40.287Z,84.30
2017-09-02T02:31:10.130Z,84.50
2017-09-02T02:40:04.790Z,84.70
2017-09-02T02:42:35.156Z,84.60
2017-09-02T02:45:04.801Z,84.60
2017-09-02T02:47:34.867Z,84.50
2017-09-02T02:50:03.744Z,84.50
2017-09-02T02:52:33.321Z,84.60
2017-09-02T02:55:04.189Z,85.00
2017-09-02T02:57:38.472Z,85.00
2017-09-02T03:00:08.673Z,85.40
2017-09-02T03:02:38.501Z,85.40
2017-09-02T03:05:07.983Z,86.10
2017-09-02T03:07:37.598Z,86.20
2017-09-02T03:10:08.645Z,86.40
2017-09-02T03:12:39.440Z,86.80
2017-09-02T03:15:10.034Z,86.80
2017-09-02T03:17:39.296Z,86.80
2017-09-02T03:20:08.630Z,86.60
2017-09-02T03:22:38.697Z,85.80
2017-09-02T03:25:08.916Z,85.90
2017-09-02T03:27:38.318Z,86.10
2017-09-02T03:30:08.164Z,86.20
2017-09-02T03:32:38.359Z,86.10
2017-09-02T03:35:14.823Z,85.60
2017-09-02T03:37:46.710Z,85.70
2017-09-02T03:40:16.244Z,85.70
2017-09-02T03:42:45.499Z,85.40
2017-09-02T03:45:14.697Z,85.60
2017-09-02T03:47:58.965Z,85.70
2017-09-02T03:50:28.274Z,85.60
2017-09-02T03:52:57.593Z,83.90
2017-09-02T03:55:27.029Z,82.70
2017-09-02T03:57:56.828Z,83.00
2017-09-02T04:00:26.793Z,83.50
2017-09-02T04:02:57.154Z,83.40
2017-09-02T04:05:26.525Z,82.90
2017-09-02T04:07:56.403Z,83.90
2017-09-02T04:10:25.759Z,84.60
2017-09-02T04:12:55.031Z,84.60
2017-09-02T04:15:24.882Z,85.30
2017-09-02T04:17:56.504Z,85.70
2017-09-02T04:20:26.312Z,86.00
2017-09-02T04:22:55.604Z,85.20
2017-09-02T04:25:25.527Z,86.00
2017-09-02T04:27:54.789Z,86.20
2017-09-02T04:30:26.615Z,87.20
2017-09-02T04:32:55.950Z,86.50
2017-09-02T04:35:25.182Z,86.70
2017-09-02T04:37:54.826Z,86.60
2017-09-02T04:40:24.072Z,86.70
2017-09-02T04:42:53.426Z,86.60
2017-09-02T04:45:22.701Z,87.20
2017-09-02T04:47:52.333Z,86.90
2017-09-02T04:50:21.737Z,87.10
2017-09-02T04:52:51.109Z,87.40
2017-09-02T04:55:20.489Z,87.80
2017-09-02T04:57:50.615Z,87.60
2017-09-02T05:00:20.040Z,88.10
2017-09-02T05:02:49.416Z,87.60
2017-09-02T05:05:18.874Z,87.40
2017-09-02T05:07:48.472Z,87.30
2017-09-02T05:10:17.692Z,87.30
2017-09-02T05:12:47.567Z,87.40
2017-09-02T05:15:16.809Z,87.70
2017-09-02T05:17:46.261Z,87.70
2017-09-02T05:20:16.293Z,87.90
2017-09-02T05:22:46.583Z,88.00
2017-09-02T05:25:16.483Z,87.70
2017-09-02T05:27:46.460Z,87.10
2017-09-02T05:30:15.801Z,87.50
2017-09-02T05:32:45.746Z,87.10
2017-09-02T05:35:15.188Z,87.10
2017-09-02T05:37:44.628Z,86.70
2017-09-02T05:40:13.964Z,86.10
2017-09-02T05:42:43.265Z,85.70
2017-09-02T05:45:14.083Z,85.30
2017-09-02T05:47:43.494Z,85.20
2017-09-02T05:50:12.898Z,85.60
2017-09-02T05:52:42.238Z,84.90
2017-09-02T05:55:12.846Z,84.50
2017-09-02T05:57:42.330Z,84.70
2017-09-02T06:00:12.433Z,84.70
2017-09-02T06:02:42.074Z,84.30
2017-09-02T06:05:11.695Z,84.50
2017-09-02T06:07:41.251Z,84.30
2017-09-02T06:10:11.000Z,83.90
2017-09-02T06:12:40.632Z,83.40
2017-09-02T06:15:10.152Z,82.80
2017-09-02T06:17:40.059Z,82.50
2017-09-02T06:20:09.654Z,82.10
2017-09-02T06:22:39.431Z,81.10
2017-09-02T06:25:09.554Z,80.90
2017-09-02T06:27:39.384Z,80.90
2017-09-02T06:30:10.102Z,80.20
2017-09-02T06:32:39.654Z,80.20
2017-09-02T06:35:10.155Z,79.80
2017-09-02T06:37:47.447Z,79.50
2017-09-02T06:40:16.786Z,78.00
2017-09-02T06:42:46.364Z,76.10
2017-09-02T06:45:16.256Z,73.50
2017-09-02T06:47:45.637Z,73.30
2017-09-02T06:50:15.132Z,73.50
2017-09-02T06:52:44.896Z,73.50
2017-09-02T06:55:14.273Z,73.40
2017-09-02T06:57:43.507Z,73.20
2017-09-02T07:00:13.181Z,74.20
2017-09-02T07:02:42.490Z,74.40
2017-09-02T07:05:11.794Z,74.10
2017-09-02T15:13:40.189Z,45.30
2017-09-02T15:16:12.822Z,44.90
2017-09-02T15:18:47.972Z,45.70
2017-09-02T15:21:18.784Z,45.80
2017-09-02T15:23:49.153Z,44.00
2017-09-02T15:26:20.922Z,44.00
2017-09-02T15:28:50.552Z,43.60
2017-09-02T15:31:20.759Z,44.40
2017-09-02T15:33:50.236Z,44.30
2017-09-02T15:36:19.671Z,44.10
2017-09-02T15:38:49.401Z,43.70
2017-09-02T15:41:19.073Z,45.00
2017-09-02T15:43:50.183Z,45.10
2017-09-02T15:46:24.576Z,45.60
2017-09-02T15:49:00.894Z,45.40
2017-09-02T15:51:31.352Z,45.30
2017-09-02T15:54:41.055Z,45.10
2017-09-02T15:57:16.498Z,44.80
2017-09-02T15:59:48.171Z,44.80
2017-09-02T16:02:21.814Z,44.00
2017-09-02T16:04:54.665Z,44.20
2017-09-02T16:07:30.111Z,43.50
2017-09-02T16:10:03.469Z,43.20
2017-09-02T16:12:35.010Z,42.80
2017-09-02T16:15:06.611Z,40.80
2017-09-02T16:17:38.020Z,40.80
2017-09-02T16:20:08.996Z,40.00
2017-09-02T16:22:39.649Z,38.70
2017-09-02T16:25:09.151Z,38.60
2017-09-02T16:27:38.815Z,38.20
2017-09-02T16:30:08.678Z,37.90
2017-09-02T16:32:39.126Z,38.10
2017-09-02T16:35:18.777Z,38.10
2017-09-02T16:37:49.139Z,37.80
2017-09-02T16:40:18.845Z,37.10
2017-09-02T16:42:48.472Z,37.70
2017-09-02T16:45:18.347Z,38.70
2017-09-02T16:47:54.035Z,39.10
2017-09-02T16:50:27.149Z,39.30
2017-09-02T16:53:00.111Z,39.40
2017-09-02T16:55:31.663Z,39.40
2017-09-02T16:58:16.993Z,39.70
2017-09-02T17:00:48.307Z,39.80
2017-09-02T17:06:06.050Z,39.10
2017-09-02T17:08:36.660Z,38.20
2017-09-02T17:11:06.956Z,38.00
2017-09-02T17:13:36.645Z,38.10
2017-09-02T17:16:07.744Z,39.30
2017-09-02T17:18:37.905Z,39.30
2017-09-02T17:21:07.576Z,39.60
2017-09-02T17:23:37.094Z,38.90
2017-09-02T17:26:08.432Z,39.50
2017-09-02T17:28:38.765Z,39.70
2017-09-02T17:31:09.359Z,39.50
2017-09-02T17:33:39.294Z,40.40
2017-09-02T17:36:09.231Z,40.90
2017-09-02T17:38:47.194Z,41.00
2017-09-02T17:41:18.164Z,40.40
2017-09-02T17:43:49.175Z,41.60
2017-09-02T17:46:20.011Z,41.60
2017-09-02T17:48:53.013Z,41.90
2017-09-02T17:54:25.367Z,44.90
2017-09-02T17:56:56.015Z,44.30
2017-09-02T17:59:31.008Z,42.00
2017-09-02T18:02:08.216Z,42.70
2017-09-02T18:04:48.497Z,42.10
2017-09-02T18:07:18.996Z,43.10
2017-09-02T18:09:50.454Z,42.40
2017-09-02T18:12:22.254Z,42.40
2017-09-02T18:14:52.034Z,42.70
2017-09-02T18:18:05.362Z,42.10
2017-09-02T18:20:35.559Z,43.40
2017-09-02T18:23:05.435Z,44.20
2017-09-02T18:25:37.106Z,45.80
2017-09-02T18:28:07.822Z,46.60
2017-09-02T18:30:37.673Z,48.20
2017-09-02T18:33:08.771Z,49.50
2017-09-02T18:35:39.348Z,49.40
2017-09-02T18:38:09.490Z,50.40
2017-09-02T18:40:42.827Z,51.20
2017-09-02T18:43:12.592Z,51.30
2017-09-02T18:45:43.570Z,52.80
2017-09-02T18:48:13.699Z,52.70
2017-09-02T18:50:46.162Z,54.30
2017-09-02T18:53:16.692Z,54.60
2017-09-02T18:55:50.446Z,55.80
2017-09-02T18:58:20.726Z,56.60
2017-09-02T19:00:51.953Z,57.30
2017-09-02T19:03:26.286Z,57.60
2017-09-02T19:06:29.491Z,58.20
2017-09-02T19:09:07.254Z,58.20
2017-09-02T19:11:40.866Z,58.40
2017-09-02T19:14:24.334Z,58.30
2017-09-02T19:17:05.100Z,58.70
2017-09-02T19:19:35.664Z,58.60
2017-09-02T19:22:07.970Z,58.90
2017-09-02T19:24:37.846Z,58.80
2017-09-02T19:27:11.967Z,58.80
2017-09-02T19:30:35.264Z,58.60
2017-09-02T19:33:10.605Z,58.70
2017-09-02T19:36:16.607Z,58.80
2017-09-02T19:39:15.393Z,59.10
2017-09-02T19:45:42.172Z,59.20
2017-09-02T19:48:18.889Z,58.90
2017-09-02T19:50:49.204Z,58.90
2017-09-02T19:53:56.954Z,58.80
2017-09-02T19:56:28.962Z,59.10
2017-09-02T19:59:04.400Z,60.80
2017-09-02T20:01:38.048Z,60.70
2017-09-02T20:04:09.878Z,61.30
2017-09-02T20:10:37.485Z,61.80
2017-09-02T20:13:09.121Z,61.60
2017-09-02T20:15:48.811Z,62.10
2017-09-02T20:18:25.206Z,61.70
2017-09-02T20:21:45.447Z,62.00
2017-09-02T20:24:23.244Z,62.00
2017-09-02T20:26:55.540Z,62.10
2017-09-02T20:30:01.200Z,61.00
2017-09-02T20:35:56.110Z,61.40
2017-09-02T20:39:01.782Z,61.60
2017-09-02T20:41:42.724Z,62.10
2017-09-02T20:48:23.949Z,62.90
2017-09-02T20:50:57.389Z,62.90
2017-09-02T20:53:33.219Z,62.90
2017-09-02T20:56:10.424Z,62.80
2017-09-02T20:58:42.810Z,62.70
2017-09-02T21:01:17.275Z,62.70
2017-09-02T21:03:48.326Z,62.80
2017-09-02T21:06:34.100Z,63.50
2017-09-02T21:09:38.729Z,63.00
2017-09-02T21:12:08.423Z,62.50
2017-09-02T21:14:39.035Z,67.30
2017-09-02T21:20:54.594Z,68.20
2017-09-02T21:23:30.732Z,69.30
2017-09-02T21:26:03.312Z,69.70
2017-09-02T21:28:33.092Z,70.80
2017-09-02T21:32:15.199Z,70.90
2017-09-02T21:34:45.134Z,71.80
2017-09-02T21:37:17.190Z,71.90
2017-09-02T21:39:48.152Z,71.80
2017-09-02T21:42:23.207Z,72.30
2017-09-02T21:44:53.996Z,72.30
2017-09-02T21:47:23.504Z,72.60
2017-09-02T21:49:54.287Z,72.60
2017-09-02T21:52:24.015Z,72.60
2017-09-02T21:54:55.123Z,72.70
2017-09-02T21:57:26.009Z,73.00
2017-09-02T21:59:58.606Z,73.00
2017-09-02T22:02:31.996Z,73.60
2017-09-02T22:05:10.137Z,73.60
2017-09-02T22:07:42.682Z,72.90
2017-09-02T22:10:19.851Z,72.40
2017-09-02T22:12:57.083Z,72.40
2017-09-02T22:15:29.987Z,72.30
2017-09-02T22:18:13.179Z,72.30
2017-09-02T22:20:43.155Z,72.30
2017-09-02T22:23:13.081Z,72.10
2017-09-02T22:25:43.369Z,72.00
2017-09-02T22:28:13.130Z,72.90
2017-09-02T22:30:42.819Z,73.20
2017-09-02T22:33:13.182Z,73.30
2017-09-02T22:35:44.395Z,73.60
2017-09-02T22:38:13.955Z,73.60
2017-09-02T22:40:43.460Z,73.20
2017-09-02T22:43:17.243Z,73.30
2017-09-02T22:45:49.421Z,73.80
2017-09-02T22:48:19.539Z,74.80
2017-09-02T22:50:49.005Z,74.40
2017-09-02T22:53:18.662Z,73.90
2017-09-02T22:56:01.242Z,74.30
2017-09-02T22:58:30.902Z,73.90
2017-09-02T23:01:04.104Z,74.10
2017-09-02T23:04:36.579Z,74.30
2017-09-02T23:07:09.939Z,75.10
2017-09-02T23:09:39.965Z,75.30
2017-09-02T23:12:19.766Z,75.30
2017-09-02T23:14:51.958Z,75.20
2017-09-02T23:17:25.279Z,75.70
2017-09-02T23:20:28.617Z,75.90
2017-09-02T23:22:58.223Z,75.80
2017-09-02T23:25:27.928Z,75.50
2017-09-02T23:28:00.366Z,75.40
2017-09-02T23:30:32.784Z,75.50
2017-09-02T23:33:06.160Z,76.00
2017-09-02T23:35:37.114Z,75.50
2017-09-02T23:38:08.234Z,75.40
2017-09-02T23:43:41.575Z,75.90
2017-09-02T23:46:11.299Z,75.70
2017-09-02T23:48:41.345Z,75.90
2017-09-02T23:51:12.630Z,77.00
2017-09-02T23:53:42.279Z,77.30
2017-09-02T23:56:12.201Z,77.20
2017-09-02T23:58:41.515Z,77.70
